createdAt,value
2022-12-03T00:01:22.211Z,15.23
2022-12-03T00:04:25.028Z,15.20
2022-12-03T00:07:27.338Z,14.63
2022-12-03T00:10:30.182Z,14.68
2022-12-03T00:13:32.434Z,14.98
2022-12-03T00:16:35.026Z,14.95
2022-12-03T00:19:37.237Z,15.15
2022-12-03T00:22:39.713Z,15.23
2022-12-03T00:25:41.918Z,15.57
2022-12-03T00:28:45.671Z,15.93
2022-12-03T00:31:48.829Z,16.25
2022-12-03T00:34:51.696Z,16.83
2022-12-03T00:37:54.898Z,15.38
2022-12-03T00:40:57.384Z,17.20
2022-12-03T00:43:59.676Z,15.98
2022-12-03T00:47:02.323Z,15.07
2022-12-03T00:50:05.614Z,15.80
2022-12-03T00:53:08.146Z,16.30
2022-12-03T00:56:10.361Z,16.80
2022-12-03T00:59:12.973Z,15.73
2022-12-03T01:02:16.039Z,16.20
2022-12-03T01:05:19.850Z,16.08
2022-12-03T01:08:22.190Z,16.83
2022-12-03T01:11:41.245Z,16.17
2022-12-03T01:14:44.112Z,17.87
2022-12-03T01:17:46.900Z,16.05
2022-12-03T01:20:49.218Z,15.50
2022-12-03T01:23:51.858Z,16.73
2022-12-03T01:26:55.873Z,16.45
2022-12-03T01:29:58.354Z,18.12
2022-12-03T01:33:00.537Z,16.67
2022-12-03T01:36:03.184Z,16.52
2022-12-03T01:39:05.473Z,16.20
2022-12-03T01:42:11.951Z,16.48
2022-12-03T01:45:22.963Z,17.52
2022-12-03T01:48:25.457Z,16.60
2022-12-03T01:51:27.697Z,15.93
2022-12-03T01:54:38.854Z,15.40
2022-12-03T01:57:45.416Z,15.82
2022-12-03T02:00:48.220Z,16.12
2022-12-03T02:03:50.944Z,15.63
2022-12-03T02:06:53.574Z,16.35
2022-12-03T02:09:58.137Z,16.75
2022-12-03T02:13:07.563Z,16.75
2022-12-03T02:16:10.139Z,15.88
2022-12-03T02:19:26.791Z,16.73
2022-12-03T02:22:40.651Z,15.65
2022-12-03T02:25:43.138Z,15.38
2022-12-03T02:28:45.365Z,16.23
2022-12-03T02:31:47.942Z,15.70
2022-12-03T02:34:52.240Z,16.42
2022-12-03T02:38:00.213Z,15.82
2022-12-03T02:41:07.293Z,16.50
2022-12-03T02:44:10.047Z,16.27
2022-12-03T02:47:12.999Z,16.30
2022-12-03T02:50:20.020Z,15.88
2022-12-03T02:53:32.491Z,16.83
2022-12-03T02:56:35.181Z,16.37
2022-12-03T02:59:37.466Z,14.38
2022-12-03T03:02:41.374Z,15.32
2022-12-03T03:05:45.151Z,14.77
2022-12-03T03:11:50.281Z,15.57
2022-12-03T03:14:53.003Z,16.10
2022-12-03T03:17:55.860Z,15.10
2022-12-03T03:20:59.136Z,15.60
2022-12-03T03:24:01.425Z,17.50
2022-12-03T03:27:05.115Z,16.10
2022-12-03T03:30:09.646Z,15.73
2022-12-03T03:33:14.418Z,15.55
2022-12-03T03:36:17.233Z,15.55
2022-12-03T03:39:19.874Z,16.47
2022-12-03T03:42:22.794Z,16.30
2022-12-03T03:45:29.080Z,15.13
2022-12-03T03:48:34.516Z,16.17
2022-12-03T03:51:38.681Z,15.50
2022-12-03T03:54:41.017Z,15.93
2022-12-03T03:57:43.595Z,16.02
2022-12-03T04:00:46.574Z,15.85
2022-12-03T04:03:49.209Z,15.95
2022-12-03T04:06:51.453Z,15.30
2022-12-03T04:09:53.974Z,16.23
2022-12-03T04:12:56.434Z,16.00
2022-12-03T04:15:59.095Z,16.23
2022-12-03T04:19:01.317Z,16.87
2022-12-03T04:22:22.110Z,17.33
2022-12-03T04:25:43.042Z,16.85
2022-12-03T04:28:51.128Z,17.12
2022-12-03T04:32:11.686Z,16.20
2022-12-03T04:35:33.281Z,17.42
2022-12-03T04:38:35.673Z,16.73
2022-12-03T04:41:38.154Z,16.75
2022-12-03T04:44:40.745Z,16.87
2022-12-03T04:47:44.706Z,16.73
2022-12-03T04:50:47.012Z,16.73
2022-12-03T04:53:49.522Z,16.48
2022-12-03T04:56:51.820Z,16.70
2022-12-03T04:59:54.289Z,18.23
2022-12-03T05:02:56.560Z,18.10
2022-12-03T05:05:59.478Z,17.25
2022-12-03T05:09:01.775Z,19.10
2022-12-03T05:12:04.582Z,17.02
2022-12-03T05:15:07.328Z,18.25
2022-12-03T05:18:09.843Z,17.77
2022-12-03T05:21:12.273Z,16.62
2022-12-03T05:24:14.810Z,17.65
2022-12-03T05:27:23.140Z,16.60
2022-12-03T05:30:26.458Z,16.83
2022-12-03T05:33:28.766Z,17.20
2022-12-03T05:36:34.310Z,17.25
2022-12-03T05:39:36.937Z,16.95
2022-12-03T05:42:55.204Z,16.55
2022-12-03T05:45:57.477Z,16.77
2022-12-03T05:49:00.054Z,17.08
2022-12-03T05:52:02.618Z,17.00
2022-12-03T05:55:05.664Z,16.37
2022-12-03T05:58:08.262Z,16.30
2022-12-03T06:01:10.872Z,15.93
2022-12-03T06:04:13.428Z,17.48
2022-12-03T06:07:15.763Z,16.23
2022-12-03T06:10:28.331Z,16.90
2022-12-03T06:13:30.559Z,18.00
2022-12-03T06:16:33.160Z,16.98
2022-12-03T06:19:35.944Z,16.40
2022-12-03T06:22:38.446Z,17.12
2022-12-03T06:25:40.802Z,16.37
2022-12-03T06:28:47.708Z,16.73
2022-12-03T06:31:50.048Z,17.10
2022-12-03T06:34:52.915Z,16.98
2022-12-03T06:37:55.541Z,16.42
2022-12-03T06:40:58.182Z,17.40
2022-12-03T06:44:03.598Z,16.98
2022-12-03T06:47:06.330Z,16.87
2022-12-03T06:50:10.554Z,18.65
2022-12-03T06:53:13.081Z,18.35
2022-12-03T06:56:18.844Z,16.87
2022-12-03T06:59:24.025Z,17.60
2022-12-03T07:02:26.365Z,17.55
2022-12-03T07:05:28.959Z,17.02
2022-12-03T07:08:31.177Z,17.23
2022-12-03T07:11:39.889Z,17.42
2022-12-03T07:14:42.168Z,17.80
2022-12-03T07:17:44.737Z,18.10
2022-12-03T07:20:47.071Z,18.40
2022-12-03T07:23:49.605Z,17.45
2022-12-03T07:26:51.987Z,19.33
2022-12-03T07:29:54.574Z,17.48
2022-12-03T07:32:57.068Z,18.37
2022-12-03T07:35:59.613Z,18.15
2022-12-03T07:39:01.856Z,18.17
2022-12-03T07:42:04.496Z,17.67
2022-12-03T07:45:07.427Z,19.05
2022-12-03T07:48:10.395Z,18.80
2022-12-03T07:51:15.270Z,18.87
2022-12-03T07:54:18.190Z,18.52
2022-12-03T07:57:20.880Z,18.77
2022-12-03T08:00:23.566Z,18.55
2022-12-03T08:03:26.132Z,19.65
2022-12-03T08:06:28.422Z,19.30
2022-12-03T08:09:31.511Z,19.45
2022-12-03T08:12:40.877Z,19.27
2022-12-03T08:15:44.054Z,19.45
2022-12-03T08:18:48.378Z,18.55
2022-12-03T08:21:52.320Z,19.15
2022-12-03T08:24:58.717Z,20.80
2022-12-03T08:28:28.255Z,19.20
2022-12-03T08:31:33.653Z,20.35
2022-12-03T08:34:42.524Z,20.30
2022-12-03T08:37:44.881Z,21.37
2022-12-03T08:40:51.018Z,20.10
2022-12-03T08:43:53.238Z,19.60
2022-12-03T08:47:21.747Z,20.42
2022-12-03T08:50:30.151Z,19.10
2022-12-03T08:53:47.669Z,19.30
2022-12-03T08:56:50.036Z,17.87
2022-12-03T09:00:10.050Z,18.80
2022-12-03T09:03:19.349Z,17.83
2022-12-03T09:06:22.902Z,18.42
2022-12-03T09:09:25.583Z,18.08
2022-12-03T09:12:28.070Z,18.42
2022-12-03T09:15:30.307Z,16.90
2022-12-03T09:18:33.688Z,18.10
2022-12-03T09:21:36.129Z,16.85
2022-12-03T09:24:38.651Z,16.25
2022-12-03T09:27:40.915Z,17.17
2022-12-03T09:30:46.383Z,17.90
2022-12-03T09:33:48.860Z,16.12
2022-12-03T09:36:51.443Z,16.55
2022-12-03T09:39:53.691Z,15.90
2022-12-03T09:42:58.643Z,17.05
2022-12-03T09:46:01.448Z,17.87
2022-12-03T09:49:12.320Z,17.00
2022-12-03T09:52:27.563Z,17.00
2022-12-03T09:55:31.166Z,16.90
2022-12-03T09:58:35.030Z,16.85
2022-12-03T10:01:38.416Z,17.25
2022-12-03T10:04:44.247Z,16.90
2022-12-03T10:07:48.344Z,17.05
2022-12-03T10:10:57.100Z,16.40
2022-12-03T10:13:59.496Z,15.98
2022-12-03T10:17:02.264Z,16.00
2022-12-03T10:20:05.147Z,17.33
2022-12-03T10:23:07.683Z,16.43
2022-12-03T10:26:10.122Z,15.00
2022-12-03T10:29:29.630Z,16.33
2022-12-03T10:32:47.512Z,15.05
2022-12-03T10:35:50.034Z,15.23
2022-12-03T10:39:12.530Z,15.27
2022-12-03T10:42:16.335Z,15.85
2022-12-03T10:45:22.691Z,14.25
2022-12-03T10:48:27.385Z,14.82
2022-12-03T10:51:30.924Z,14.38
2022-12-03T10:57:42.380Z,14.80
2022-12-03T11:00:48.479Z,14.50
2022-12-03T11:03:51.846Z,13.33
2022-12-03T11:06:55.346Z,13.55
2022-12-03T11:09:58.897Z,13.80
2022-12-03T11:16:45.446Z,13.85
2022-12-03T11:19:48.849Z,12.27
2022-12-03T11:22:55.618Z,13.07
2022-12-03T11:25:58.318Z,11.98
2022-12-03T11:29:00.643Z,13.05
2022-12-03T11:32:03.283Z,11.85
2022-12-03T11:35:13.034Z,12.27
2022-12-03T11:38:37.547Z,13.60
2022-12-03T11:42:29.002Z,12.37
2022-12-03T11:45:36.645Z,12.00
2022-12-03T11:48:45.296Z,11.93
2022-12-03T11:51:48.340Z,12.68
2022-12-03T11:54:56.273Z,12.10
2022-12-03T11:58:04.368Z,12.63
2022-12-03T12:01:08.290Z,11.80
2022-12-03T12:04:43.064Z,11.70
2022-12-03T12:07:47.934Z,11.07
2022-12-03T12:10:50.555Z,11.38
2022-12-03T12:13:55.621Z,11.82
2022-12-03T12:17:03.203Z,12.20
2022-12-03T12:20:27.107Z,12.32
2022-12-03T12:23:29.694Z,10.52
2022-12-03T12:26:31.944Z,12.15
2022-12-03T12:29:35.859Z,11.32
2022-12-03T12:33:07.072Z,11.88
2022-12-03T12:36:10.106Z,11.57
2022-12-03T12:39:14.733Z,10.23
2022-12-03T12:42:52.336Z,11.43
2022-12-03T12:45:56.697Z,11.98
2022-12-03T12:48:59.993Z,10.85
2022-12-03T12:52:02.492Z,11.67
2022-12-03T12:55:10.441Z,10.90
2022-12-03T12:58:19.490Z,11.65
2022-12-03T13:01:32.403Z,11.23
2022-12-03T13:04:39.955Z,11.55
2022-12-03T13:07:43.932Z,11.48
2022-12-03T13:10:47.583Z,11.52
2022-12-03T13:13:50.739Z,12.30
2022-12-03T13:16:56.049Z,11.90
2022-12-03T13:20:07.230Z,11.75
2022-12-03T13:23:29.854Z,12.30
2022-12-03T13:26:39.450Z,11.75
2022-12-03T13:29:42.195Z,11.20
2022-12-03T13:32:44.732Z,12.23
2022-12-03T13:35:47.098Z,11.82
2022-12-03T13:38:49.810Z,11.98
2022-12-03T13:42:11.117Z,11.77
2022-12-03T13:45:13.595Z,11.45
2022-12-03T13:48:27.518Z,11.90
2022-12-03T13:54:38.986Z,10.63
2022-12-03T13:57:41.545Z,11.90
2022-12-03T14:00:43.984Z,12.02
2022-12-03T14:03:46.571Z,11.98
2022-12-03T14:06:48.847Z,11.63
2022-12-03T14:09:51.854Z,11.73
2022-12-03T14:12:54.985Z,11.55
2022-12-03T14:15:57.632Z,11.10
2022-12-03T14:19:00.145Z,10.95
2022-12-03T14:22:02.788Z,10.68
2022-12-03T14:25:06.888Z,11.88
2022-12-03T14:28:09.953Z,11.73
2022-12-03T14:31:12.228Z,11.75
2022-12-03T14:34:14.793Z,12.13
2022-12-03T14:37:17.472Z,12.15
2022-12-03T14:40:21.991Z,11.77
2022-12-03T14:43:24.509Z,11.55
2022-12-03T14:46:27.126Z,11.98
2022-12-03T14:49:29.699Z,12.30
2022-12-03T14:52:32.438Z,12.55
2022-12-03T14:55:34.886Z,11.38
2022-12-03T14:58:37.439Z,11.82
2022-12-03T15:01:39.770Z,12.90
2022-12-03T15:04:42.439Z,11.85
2022-12-03T15:07:45.010Z,11.25
2022-12-03T15:10:47.547Z,12.18
2022-12-03T15:13:49.859Z,12.45
2022-12-03T15:16:52.462Z,12.40
2022-12-03T15:19:55.073Z,12.43
2022-12-03T15:22:58.151Z,12.88
2022-12-03T15:26:00.494Z,12.07
2022-12-03T15:29:03.154Z,12.52
2022-12-03T15:32:05.764Z,12.43
2022-12-03T15:35:08.715Z,11.43
2022-12-03T15:38:11.955Z,12.27
2022-12-03T15:41:29.820Z,12.52
2022-12-03T15:44:32.069Z,12.07
2022-12-03T15:47:34.630Z,13.52
2022-12-03T15:50:40.265Z,12.80
2022-12-03T15:53:43.135Z,12.77
2022-12-03T15:56:45.418Z,13.90
2022-12-03T15:59:48.055Z,13.32
2022-12-03T16:02:53.089Z,12.05
2022-12-03T16:05:55.993Z,13.00
2022-12-03T16:08:58.251Z,14.87
2022-12-03T16:12:00.787Z,12.65
2022-12-03T16:15:03.248Z,13.70
2022-12-03T16:18:05.882Z,13.90
2022-12-03T16:21:08.143Z,13.65
2022-12-03T16:24:10.704Z,19.10
2022-12-03T16:27:12.993Z,35.17
2022-12-03T16:30:15.763Z,15.27
2022-12-03T16:33:21.255Z,14.02
2022-12-03T16:36:28.258Z,13.70
2022-12-03T16:39:30.690Z,14.70
2022-12-03T16:42:33.262Z,14.07
2022-12-03T16:45:54.249Z,13.95
2022-12-03T16:48:58.228Z,14.10
2022-12-03T16:52:00.487Z,14.85
2022-12-03T16:55:03.298Z,14.32
2022-12-03T16:58:05.896Z,14.57
2022-12-03T17:01:08.519Z,14.93
2022-12-03T17:04:10.885Z,14.27
2022-12-03T17:07:13.469Z,14.63
2022-12-03T17:10:15.761Z,15.90
2022-12-03T17:13:18.982Z,15.30
2022-12-03T17:16:23.857Z,16.45
2022-12-03T17:19:26.583Z,17.17
2022-12-03T17:22:28.788Z,23.48
2022-12-03T17:25:31.337Z,15.40
2022-12-03T17:28:33.626Z,15.52
2022-12-03T17:31:41.699Z,16.02
2022-12-03T17:34:44.657Z,14.90
2022-12-03T17:37:47.155Z,15.48
2022-12-03T17:40:49.435Z,15.38
2022-12-03T17:43:53.866Z,17.08
2022-12-03T17:46:56.208Z,16.55
2022-12-03T17:49:58.878Z,16.50
2022-12-03T17:53:01.392Z,17.80
2022-12-03T17:56:04.131Z,17.30
2022-12-03T17:59:06.421Z,17.90
2022-12-03T18:02:09.035Z,17.45
2022-12-03T18:05:11.727Z,19.52
2022-12-03T18:08:13.963Z,17.77
2022-12-03T18:11:16.553Z,18.83
2022-12-03T18:14:18.795Z,17.77
2022-12-03T18:17:21.322Z,19.27
2022-12-03T18:20:23.671Z,18.55
2022-12-03T18:23:26.783Z,19.92
2022-12-03T18:26:29.259Z,20.85
2022-12-03T18:29:32.010Z,19.92
2022-12-03T18:32:34.285Z,19.55
2022-12-03T18:35:37.022Z,19.48
2022-12-03T18:38:39.328Z,18.85
2022-12-03T18:41:41.882Z,21.45
2022-12-03T18:44:49.483Z,19.92
2022-12-03T18:47:52.472Z,19.30
2022-12-03T18:50:56.492Z,20.00
2022-12-03T18:53:59.112Z,19.87
2022-12-03T18:57:01.483Z,20.27
2022-12-03T19:00:13.044Z,20.12
2022-12-03T19:03:15.954Z,19.33
2022-12-03T19:06:21.450Z,20.12
2022-12-03T19:09:23.895Z,20.52
2022-12-03T19:12:26.415Z,19.17
2022-12-03T19:15:28.714Z,20.15
2022-12-03T19:18:31.333Z,19.25
2022-12-03T19:21:34.119Z,18.90
2022-12-03T19:24:36.713Z,20.23
2022-12-03T19:27:39.004Z,19.52
2022-12-03T19:30:41.565Z,19.45
2022-12-03T19:33:44.289Z,19.80
2022-12-03T19:36:47.594Z,18.95
2022-12-03T19:39:53.515Z,19.33
2022-12-03T19:42:56.285Z,19.35
2022-12-03T19:46:06.396Z,18.52
2022-12-03T19:49:09.969Z,18.55
2022-12-03T19:52:12.221Z,20.53
2022-12-03T19:55:19.454Z,20.83
2022-12-03T19:58:22.332Z,22.40
2022-12-03T20:01:27.347Z,20.57
2022-12-03T20:04:29.927Z,18.90
2022-12-03T20:07:32.265Z,19.77
2022-12-03T20:10:36.287Z,19.90
2022-12-03T20:13:38.995Z,18.70
2022-12-03T20:16:43.563Z,19.48
2022-12-03T20:19:45.967Z,18.55
2022-12-03T20:22:48.867Z,19.02
2022-12-03T20:25:51.131Z,18.27
2022-12-03T20:28:55.188Z,18.55
2022-12-03T20:31:57.693Z,18.73
2022-12-03T20:35:00.357Z,18.48
2022-12-03T20:38:02.629Z,19.55
2022-12-03T20:41:07.851Z,17.00
2022-12-03T20:44:10.172Z,18.42
2022-12-03T20:47:12.779Z,18.60
2022-12-03T20:50:15.147Z,18.05
2022-12-03T20:53:24.788Z,19.27
2022-12-03T20:56:33.296Z,18.20
2022-12-03T20:59:35.871Z,18.85
2022-12-03T21:02:38.407Z,18.00
2022-12-03T21:05:42.619Z,18.95
2022-12-03T21:08:45.804Z,19.25
2022-12-03T21:11:48.402Z,20.37
2022-12-03T21:14:50.925Z,19.80
2022-12-03T21:17:53.742Z,18.95
2022-12-03T21:20:56.259Z,19.65
2022-12-03T21:23:58.778Z,18.73
2022-12-03T21:27:01.096Z,18.70
2022-12-03T21:30:04.264Z,18.48
2022-12-03T21:33:06.924Z,20.42
2022-12-03T21:36:10.530Z,19.73
2022-12-03T21:39:13.113Z,19.67
2022-12-03T21:42:34.007Z,20.25
2022-12-03T21:45:40.602Z,20.48
2022-12-03T21:48:44.616Z,20.17
2022-12-03T21:51:47.050Z,20.08
2022-12-03T21:54:52.463Z,20.65
2022-12-03T21:57:54.684Z,20.37
2022-12-03T22:01:25.599Z,21.95
2022-12-03T22:04:30.519Z,20.27
2022-12-03T22:07:34.435Z,21.48
2022-12-03T22:10:37.030Z,22.20
2022-12-03T22:13:40.377Z,19.73
2022-12-03T22:16:42.868Z,21.80
2022-12-03T22:19:45.160Z,22.00
2022-12-03T22:22:47.651Z,21.15
2022-12-03T22:25:58.760Z,20.77
2022-12-03T22:29:01.307Z,21.23
2022-12-03T22:32:04.089Z,21.33
2022-12-03T22:35:06.949Z,21.75
2022-12-03T22:38:09.182Z,21.73
2022-12-03T22:41:13.294Z,20.35
2022-12-03T22:44:16.414Z,21.00
2022-12-03T22:47:19.025Z,20.83
2022-12-03T22:50:21.345Z,21.42
2022-12-03T22:53:23.942Z,20.80
2022-12-03T22:56:27.721Z,21.00
2022-12-03T23:02:33.337Z,20.48
2022-12-03T23:05:38.723Z,20.83
2022-12-03T23:08:41.000Z,20.80
2022-12-03T23:11:45.421Z,20.75
2022-12-03T23:14:47.660Z,20.27
2022-12-03T23:17:50.246Z,20.08
2022-12-03T23:20:54.522Z,19.87
2022-12-03T23:23:58.710Z,20.98
2022-12-03T23:27:00.975Z,19.65
2022-12-03T23:30:04.558Z,18.95
2022-12-03T23:33:07.103Z,20.10
2022-12-03T23:36:10.493Z,20.30
2022-12-03T23:39:12.726Z,21.03
2022-12-03T23:42:15.470Z,18.67
2022-12-03T23:45:17.773Z,19.50
2022-12-03T23:48:20.280Z,18.65
2022-12-03T23:51:24.601Z,19.10
2022-12-03T23:54:27.253Z,19.17
2022-12-03T23:57:29.533Z,19.52
